Terminal Aerodrome Forecast
Issued by NWS

Home | Current Version | Previous Version | Text Only | Print | Product List | Glossary On
Versions: 1 2 3 4 5 6 7 8 9 10 11 12 13 14 15 16 17 18
470
FTUS46 KMTR 191157
TAFOAK
TAF
KOAK 191157Z 1912/2018 17011KT P6SM -RA BKN030 OVC040
     FM191800 13015KT 6SM -RA BR OVC030
     FM200300 16020G30KT 2SM +RA BR OVC015
     FM200600 17015G22KT 5SM RA BR OVC020
     FM201700 17025G35KT 2SM +RA BR OVC011=

USA.gov is the U.S. government's official web portal to all federal, state and local government web resources and services.